sensor_id;sensor_type;location;lat;lon;timestamp;pressure;altitude;pressure_sealevel;temperature;humidity
14293;BME280;62290;59.420;17.842;2023-02-21T00:00:32;98697.41;;;25.60;18.48
14293;BME280;62290;59.420;17.842;2023-02-21T00:03:17;98694.88;;;25.58;18.46
14293;BME280;62290;59.420;17.842;2023-02-21T00:06:03;98701.75;;;25.61;18.54
14293;BME280;62290;59.420;17.842;2023-02-21T00:08:48;98704.06;;;25.64;18.15
14293;BME280;62290;59.420;17.842;2023-02-21T00:11:40;98703.59;;;25.60;18.29
14293;BME280;62290;59.420;17.842;2023-02-21T00:14:25;98700.88;;;25.54;18.18
14293;BME280;62290;59.420;17.842;2023-02-21T00:17:10;98717.69;;;25.56;18.45
14293;BME280;62290;59.420;17.842;2023-02-21T00:19:55;98702.66;;;25.47;18.21
14293;BME280;62290;59.420;17.842;2023-02-21T00:22:44;98708.19;;;25.60;18.19
14293;BME280;62290;59.420;17.842;2023-02-21T00:25:30;98713.16;;;25.63;17.89
14293;BME280;62290;59.420;17.842;2023-02-21T00:28:16;98715.47;;;25.66;18.28
14293;BME280;62290;59.420;17.842;2023-02-21T00:31:03;98726.72;;;25.69;17.90
14293;BME280;62290;59.420;17.842;2023-02-21T00:33:50;98734.81;;;25.69;18.29
14293;BME280;62290;59.420;17.842;2023-02-21T00:36:35;98735.84;;;25.68;17.77
14293;BME280;62290;59.420;17.842;2023-02-21T00:39:21;98744.59;;;25.70;17.91
14293;BME280;62290;59.420;17.842;2023-02-21T00:42:07;98753.31;;;25.72;17.76
14293;BME280;62290;59.420;17.842;2023-02-21T00:44:53;98751.47;;;25.73;17.84
14293;BME280;62290;59.420;17.842;2023-02-21T00:47:39;98767.19;;;25.69;17.73
14293;BME280;62290;59.420;17.842;2023-02-21T00:50:24;98777.97;;;25.69;18.26
14293;BME280;62290;59.420;17.842;2023-02-21T00:53:09;98775.28;;;25.69;18.15
14293;BME280;62290;59.420;17.842;2023-02-21T00:55:54;98777.13;;;25.69;17.69
14293;BME280;62290;59.420;17.842;2023-02-21T00:58:40;98785.63;;;25.66;17.71
14293;BME280;62290;59.420;17.842;2023-02-21T01:01:27;98798.47;;;25.64;17.72
14293;BME280;62290;59.420;17.842;2023-02-21T01:04:12;98807.97;;;25.60;17.92
14293;BME280;62290;59.420;17.842;2023-02-21T01:06:58;98813.38;;;25.60;18.22
14293;BME280;62290;59.420;17.842;2023-02-21T01:09:44;98810.69;;;25.60;18.17
14293;BME280;62290;59.420;17.842;2023-02-21T01:12:29;98818.78;;;25.60;17.69
14293;BME280;62290;59.420;17.842;2023-02-21T01:15:14;98834.94;;;25.60;17.80
14293;BME280;62290;59.420;17.842;2023-02-21T01:18:01;98833.66;;;25.56;18.18
14293;BME280;62290;59.420;17.842;2023-02-21T01:20:47;98836.81;;;25.59;18.15
14293;BME280;62290;59.420;17.842;2023-02-21T01:23:32;98842.38;;;25.58;17.74
14293;BME280;62290;59.420;17.842;2023-02-21T01:26:18;98853.75;;;25.53;17.71
14293;BME280;62290;59.420;17.842;2023-02-21T01:29:03;98867.06;;;25.55;17.74
14293;BME280;62290;59.420;17.842;2023-02-21T01:31:49;98863.53;;;25.54;18.09
14293;BME280;62290;59.420;17.842;2023-02-21T01:34:39;98869.75;;;25.55;18.15
14293;BME280;62290;59.420;17.842;2023-02-21T01:37:24;98890.94;;;25.58;18.20
14293;BME280;62290;59.420;17.842;2023-02-21T01:40:13;98887.84;;;25.61;18.06
14293;BME280;62290;59.420;17.842;2023-02-21T01:43:00;98897.00;;;25.60;17.72
14293;BME280;62290;59.420;17.842;2023-02-21T01:45:48;98896.78;;;25.61;17.64
14293;BME280;62290;59.420;17.842;2023-02-21T01:48:35;98917.53;;;25.61;18.04
14293;BME280;62290;59.420;17.842;2023-02-21T01:51:27;98924.59;;;25.62;17.73
14293;BME280;62290;59.420;17.842;2023-02-21T01:54:16;98930.00;;;25.62;17.74
14293;BME280;62290;59.420;17.842;2023-02-21T01:57:03;98928.97;;;25.63;17.60
14293;BME280;62290;59.420;17.842;2023-02-21T01:59:50;98898.41;;;25.41;17.80
14293;BME280;62290;59.420;17.842;2023-02-21T02:02:49;98935.41;;;25.62;17.98
14293;BME280;62290;59.420;17.842;2023-02-21T02:05:37;98940.16;;;25.60;17.90
14293;BME280;62290;59.420;17.842;2023-02-21T02:08:27;98941.81;;;25.61;17.77
14293;BME280;62290;59.420;17.842;2023-02-21T02:11:23;98941.38;;;25.57;17.87
14293;BME280;62290;59.420;17.842;2023-02-21T02:14:27;98944.22;;;25.56;18.06
14293;BME280;62290;59.420;17.842;2023-02-21T02:17:01;98945.91;;;25.57;18.14
14293;BME280;62290;59.420;17.842;2023-02-21T02:22:51;98963.97;;;25.56;17.85
14293;BME280;62290;59.420;17.842;2023-02-21T02:25:55;98967.66;;;25.55;17.67
14293;BME280;62290;59.420;17.842;2023-02-21T02:28:46;98974.09;;;25.54;18.13
14293;BME280;62290;59.420;17.842;2023-02-21T02:31:28;98982.00;;;25.56;17.71
14293;BME280;62290;59.420;17.842;2023-02-21T02:37:08;98982.56;;;25.51;17.82
14293;BME280;62290;59.420;17.842;2023-02-21T02:39:43;98997.53;;;25.54;18.18
14293;BME280;62290;59.420;17.842;2023-02-21T02:42:21;98988.81;;;25.52;18.18
14293;BME280;62290;59.420;17.842;2023-02-21T02:44:58;98992.72;;;25.49;18.07
14293;BME280;62290;59.420;17.842;2023-02-21T02:47:30;98999.59;;;25.52;18.31
14293;BME280;62290;59.420;17.842;2023-02-21T02:50:03;99021.34;;;25.50;17.91
14293;BME280;62290;59.420;17.842;2023-02-21T02:52:35;99035.50;;;25.52;18.02
14293;BME280;62290;59.420;17.842;2023-02-21T02:55:23;99023.38;;;25.48;18.21
14293;BME280;62290;59.420;17.842;2023-02-21T02:57:55;99028.22;;;25.53;17.94
14293;BME280;62290;59.420;17.842;2023-02-21T03:00:24;99030.75;;;25.54;18.36
14293;BME280;62290;59.420;17.842;2023-02-21T03:03:12;99029.91;;;25.54;18.38
14293;BME280;62290;59.420;17.842;2023-02-21T03:05:55;99041.91;;;25.51;18.14
14293;BME280;62290;59.420;17.842;2023-02-21T03:08:34;99044.75;;;25.50;18.13
14293;BME280;62290;59.420;17.842;2023-02-21T03:11:10;99053.91;;;25.49;17.99
14293;BME280;62290;59.420;17.842;2023-02-21T03:13:44;99056.97;;;25.46;18.47
14293;BME280;62290;59.420;17.842;2023-02-21T03:16:22;99079.50;;;25.45;18.19
14293;BME280;62290;59.420;17.842;2023-02-21T03:18:55;99093.00;;;25.45;18.29
14293;BME280;62290;59.420;17.842;2023-02-21T03:21:27;99100.63;;;25.41;17.97
14293;BME280;62290;59.420;17.842;2023-02-21T03:24:00;99110.22;;;25.44;18.07
14293;BME280;62290;59.420;17.842;2023-02-21T03:26:31;99111.44;;;25.41;17.96
14293;BME280;62290;59.420;17.842;2023-02-21T03:29:14;99125.91;;;25.40;18.10
14293;BME280;62290;59.420;17.842;2023-02-21T03:31:46;99126.41;;;25.44;18.42
14293;BME280;62290;59.420;17.842;2023-02-21T03:34:17;99128.44;;;25.42;18.49
14293;BME280;62290;59.420;17.842;2023-02-21T03:36:46;99135.69;;;25.41;18.38
14293;BME280;62290;59.420;17.842;2023-02-21T03:39:18;99145.84;;;25.39;18.36
14293;BME280;62290;59.420;17.842;2023-02-21T03:41:46;99151.03;;;25.41;17.98
14293;BME280;62290;59.420;17.842;2023-02-21T03:44:14;99158.28;;;25.40;18.04
14293;BME280;62290;59.420;17.842;2023-02-21T03:46:43;99173.63;;;25.40;18.41
14293;BME280;62290;59.420;17.842;2023-02-21T03:49:12;99176.16;;;25.41;18.28
14293;BME280;62290;59.420;17.842;2023-02-21T03:51:40;99170.75;;;25.41;18.35
14293;BME280;62290;59.420;17.842;2023-02-21T03:54:08;99183.88;;;25.44;17.98
14293;BME280;62290;59.420;17.842;2023-02-21T03:56:42;99184.69;;;25.45;17.97
14293;BME280;62290;59.420;17.842;2023-02-21T03:59:18;99180.69;;;25.41;18.25
14293;BME280;62290;59.420;17.842;2023-02-21T04:01:46;99201.59;;;25.47;18.06
14293;BME280;62290;59.420;17.842;2023-02-21T04:04:15;99204.41;;;25.45;18.25
14293;BME280;62290;59.420;17.842;2023-02-21T04:06:46;99194.50;;;25.46;18.21
14293;BME280;62290;59.420;17.842;2023-02-21T04:09:15;99195.75;;;25.35;18.33
14293;BME280;62290;59.420;17.842;2023-02-21T04:11:45;99211.16;;;25.49;18.09
14293;BME280;62290;59.420;17.842;2023-02-21T04:14:13;99180.13;;;25.31;18.17
14293;BME280;62290;59.420;17.842;2023-02-21T04:16:41;99217.38;;;25.50;18.08
14293;BME280;62290;59.420;17.842;2023-02-21T04:19:10;99229.22;;;25.49;18.51
14293;BME280;62290;59.420;17.842;2023-02-21T04:21:38;99235.59;;;25.48;18.42
14293;BME280;62290;59.420;17.842;2023-02-21T04:24:08;99241.19;;;25.46;18.47
14293;BME280;62290;59.420;17.842;2023-02-21T04:26:36;99252.81;;;25.47;18.19
14293;BME280;62290;59.420;17.842;2023-02-21T04:29:06;99257.38;;;25.46;18.65
14293;BME280;62290;59.420;17.842;2023-02-21T04:31:34;99254.69;;;25.46;18.16
14293;BME280;62290;59.420;17.842;2023-02-21T04:34:08;99260.22;;;25.45;18.20
14293;BME280;62290;59.420;17.842;2023-02-21T04:36:40;99273.56;;;25.46;18.13
14293;BME280;62290;59.420;17.842;2023-02-21T04:39:08;99251.88;;;25.32;18.26
14293;BME280;62290;59.420;17.842;2023-02-21T04:41:37;99277.22;;;25.45;18.29
14293;BME280;62290;59.420;17.842;2023-02-21T04:44:06;99294.94;;;25.48;18.39
14293;BME280;62290;59.420;17.842;2023-02-21T04:46:34;99306.78;;;25.47;18.35
14293;BME280;62290;59.420;17.842;2023-02-21T04:49:02;99312.16;;;25.47;18.31
14293;BME280;62290;59.420;17.842;2023-02-21T04:51:30;99312.28;;;25.45;18.11
14293;BME280;62290;59.420;17.842;2023-02-21T04:53:58;99321.75;;;25.49;18.04
14293;BME280;62290;59.420;17.842;2023-02-21T04:56:26;99320.72;;;25.50;18.47
14293;BME280;62290;59.420;17.842;2023-02-21T04:58:55;99333.34;;;25.50;18.21
14293;BME280;62290;59.420;17.842;2023-02-21T05:01:26;99338.59;;;25.51;18.17
14293;BME280;62290;59.420;17.842;2023-02-21T05:03:54;99346.03;;;25.49;18.52
14293;BME280;62290;59.420;17.842;2023-02-21T05:06:24;99342.66;;;25.47;18.56
14293;BME280;62290;59.420;17.842;2023-02-21T05:08:52;99350.59;;;25.49;18.58
14293;BME280;62290;59.420;17.842;2023-02-21T05:11:21;99358.66;;;25.49;18.17
14293;BME280;62290;59.420;17.842;2023-02-21T05:13:49;99358.66;;;25.49;18.27
14293;BME280;62290;59.420;17.842;2023-02-21T05:16:18;99357.63;;;25.50;18.46
14293;BME280;62290;59.420;17.842;2023-02-21T05:18:48;99332.41;;;25.35;18.16
14293;BME280;62290;59.420;17.842;2023-02-21T05:21:17;99360.31;;;25.50;18.42
14293;BME280;62290;59.420;17.842;2023-02-21T05:23:46;99368.44;;;25.50;18.10
14293;BME280;62290;59.420;17.842;2023-02-21T05:26:23;99341.25;;;25.29;18.54
14293;BME280;62290;59.420;17.842;2023-02-21T05:28:51;99370.31;;;25.41;18.23
14293;BME280;62290;59.420;17.842;2023-02-21T05:31:20;99371.81;;;25.44;17.99
14293;BME280;62290;59.420;17.842;2023-02-21T05:33:49;99377.91;;;25.46;18.39
14293;BME280;62290;59.420;17.842;2023-02-21T05:36:17;99389.53;;;25.46;18.34
14293;BME280;62290;59.420;17.842;2023-02-21T05:38:47;99363.47;;;25.31;18.15
14293;BME280;62290;59.420;17.842;2023-02-21T05:41:15;99394.59;;;25.49;18.05
14293;BME280;62290;59.420;17.842;2023-02-21T05:43:44;99398.28;;;25.48;18.17
14293;BME280;62290;59.420;17.842;2023-02-21T05:46:20;99399.47;;;25.46;17.98
14293;BME280;62290;59.420;17.842;2023-02-21T05:48:50;99400.44;;;25.45;18.48
14293;BME280;62290;59.420;17.842;2023-02-21T05:51:19;99409.56;;;25.44;18.46
14293;BME280;62290;59.420;17.842;2023-02-21T05:53:48;99414.13;;;25.43;18.44
14293;BME280;62290;59.420;17.842;2023-02-21T05:56:16;99414.78;;;25.45;18.30
14293;BME280;62290;59.420;17.842;2023-02-21T05:58:44;99417.00;;;25.42;18.59
14293;BME280;62290;59.420;17.842;2023-02-21T06:01:12;99423.41;;;25.41;18.22
14293;BME280;62290;59.420;17.842;2023-02-21T06:03:41;99429.47;;;25.43;18.24
14293;BME280;62290;59.420;17.842;2023-02-21T06:06:13;99438.09;;;25.46;18.22
14293;BME280;62290;59.420;17.842;2023-02-21T06:08:43;99449.00;;;25.45;18.11
14293;BME280;62290;59.420;17.842;2023-02-21T06:11:11;99441.94;;;25.44;18.26
14293;BME280;62290;59.420;17.842;2023-02-21T06:13:40;99425.84;;;25.28;18.47
14293;BME280;62290;59.420;17.842;2023-02-21T06:16:08;99459.66;;;25.46;18.48
14293;BME280;62290;59.420;17.842;2023-02-21T06:18:36;99463.03;;;25.48;18.27
14293;BME280;62290;59.420;17.842;2023-02-21T06:21:05;99473.63;;;25.50;18.54
14293;BME280;62290;59.420;17.842;2023-02-21T06:23:34;99482.75;;;25.49;18.15
14293;BME280;62290;59.420;17.842;2023-02-21T06:26:02;99491.84;;;25.48;18.25
14293;BME280;62290;59.420;17.842;2023-02-21T06:28:30;99505.16;;;25.49;18.16
14293;BME280;62290;59.420;17.842;2023-02-21T06:30:58;99508.03;;;25.48;18.51
14293;BME280;62290;59.420;17.842;2023-02-21T06:33:26;99507.88;;;25.49;18.27
14293;BME280;62290;59.420;17.842;2023-02-21T06:35:54;99508.69;;;25.50;18.16
14293;BME280;62290;59.420;17.842;2023-02-21T06:38:23;99521.34;;;25.49;18.49
14293;BME280;62290;59.420;17.842;2023-02-21T06:40:52;99531.09;;;25.50;18.17
14293;BME280;62290;59.420;17.842;2023-02-21T06:43:20;99545.78;;;25.48;18.65
14293;BME280;62290;59.420;17.842;2023-02-21T06:45:48;99558.28;;;25.49;18.31
14293;BME280;62290;59.420;17.842;2023-02-21T06:48:17;99563.66;;;25.49;18.35
14293;BME280;62290;59.420;17.842;2023-02-21T06:50:45;99573.78;;;25.47;18.50
14293;BME280;62290;59.420;17.842;2023-02-21T06:53:13;99577.16;;;25.49;18.07
14293;BME280;62290;59.420;17.842;2023-02-21T06:55:41;99585.25;;;25.49;18.51
14293;BME280;62290;59.420;17.842;2023-02-21T06:58:10;99597.69;;;25.50;18.65
14293;BME280;62290;59.420;17.842;2023-02-21T07:00:38;99604.28;;;25.47;18.64
14293;BME280;62290;59.420;17.842;2023-02-21T07:03:06;99606.28;;;25.45;18.41
14293;BME280;62290;59.420;17.842;2023-02-21T07:05:34;99619.97;;;25.44;18.53
14293;BME280;62290;59.420;17.842;2023-02-21T07:08:04;99629.91;;;25.43;18.91
14293;BME280;62290;59.420;17.842;2023-02-21T07:10:32;99641.53;;;25.44;18.41
14293;BME280;62290;59.420;17.842;2023-02-21T07:13:00;99647.94;;;25.43;18.62
14293;BME280;62290;59.420;17.842;2023-02-21T07:15:29;99661.78;;;25.48;18.78
14293;BME280;62290;59.420;17.842;2023-02-21T07:17:58;99669.88;;;25.48;18.71
14293;BME280;62290;59.420;17.842;2023-02-21T07:20:26;99685.06;;;25.49;18.49
14293;BME280;62290;59.420;17.842;2023-02-21T07:22:54;99699.38;;;25.49;18.61
14293;BME280;62290;59.420;17.842;2023-02-21T07:25:22;99702.91;;;25.50;18.46
14293;BME280;62290;59.420;17.842;2023-02-21T07:27:50;99713.69;;;25.50;18.66
14293;BME280;62290;59.420;17.842;2023-02-21T07:30:19;99733.59;;;25.49;18.97
14293;BME280;62290;59.420;17.842;2023-02-21T07:32:49;99746.06;;;25.50;18.91
14293;BME280;62290;59.420;17.842;2023-02-21T07:35:17;99747.75;;;25.51;18.93
14293;BME280;62290;59.420;17.842;2023-02-21T07:37:45;99759.22;;;25.53;18.82
14293;BME280;62290;59.420;17.842;2023-02-21T07:40:12;99778.44;;;25.50;18.62
14293;BME280;62290;59.420;17.842;2023-02-21T07:42:41;99786.53;;;25.50;18.80
14293;BME280;62290;59.420;17.842;2023-02-21T07:45:10;99790.06;;;25.50;18.87
14293;BME280;62290;59.420;17.842;2023-02-21T07:47:38;99802.72;;;25.50;18.74
14293;BME280;62290;59.420;17.842;2023-02-21T07:50:09;99781.78;;;25.36;18.85
14293;BME280;62290;59.420;17.842;2023-02-21T07:52:37;99823.28;;;25.51;18.66
14293;BME280;62290;59.420;17.842;2023-02-21T07:55:05;99822.44;;;25.50;19.05
14293;BME280;62290;59.420;17.842;2023-02-21T07:57:33;99837.63;;;25.51;18.72
14293;BME280;62290;59.420;17.842;2023-02-21T08:00:02;99836.97;;;25.49;19.14
14293;BME280;62290;59.420;17.842;2023-02-21T08:02:38;99843.19;;;25.50;19.06
14293;BME280;62290;59.420;17.842;2023-02-21T08:05:08;99853.16;;;25.49;18.98
14293;BME280;62290;59.420;17.842;2023-02-21T08:07:36;99866.97;;;25.46;19.21
14293;BME280;62290;59.420;17.842;2023-02-21T08:10:05;99881.41;;;25.45;19.26
14293;BME280;62290;59.420;17.842;2023-02-21T08:12:33;99876.19;;;25.44;19.44
14293;BME280;62290;59.420;17.842;2023-02-21T08:15:01;99892.72;;;25.41;19.10
14293;BME280;62290;59.420;17.842;2023-02-21T08:17:30;99896.41;;;25.40;19.24
14293;BME280;62290;59.420;17.842;2023-02-21T08:19:58;99906.88;;;25.43;18.93
14293;BME280;62290;59.420;17.842;2023-02-21T08:22:27;99916.97;;;25.41;19.33
14293;BME280;62290;59.420;17.842;2023-02-21T08:24:55;99920.34;;;25.43;18.92
14293;BME280;62290;59.420;17.842;2023-02-21T08:27:23;99928.31;;;25.44;19.44
14293;BME280;62290;59.420;17.842;2023-02-21T08:29:51;99903.47;;;25.33;18.98
14293;BME280;62290;59.420;17.842;2023-02-21T08:32:20;99944.69;;;25.51;19.08
14293;BME280;62290;59.420;17.842;2023-02-21T08:34:48;99953.63;;;25.51;19.23
14293;BME280;62290;59.420;17.842;2023-02-21T08:37:16;99954.50;;;25.52;19.32
14293;BME280;62290;59.420;17.842;2023-02-21T08:39:49;99959.88;;;25.52;18.94
14293;BME280;62290;59.420;17.842;2023-02-21T08:42:17;99968.97;;;25.51;18.94
14293;BME280;62290;59.420;17.842;2023-02-21T08:44:46;99981.13;;;25.55;19.20
14293;BME280;62290;59.420;17.842;2023-02-21T08:47:15;99984.66;;;25.55;18.91
14293;BME280;62290;59.420;17.842;2023-02-21T08:49:43;99989.38;;;25.53;19.03
14293;BME280;62290;59.420;17.842;2023-02-21T08:52:13;100001.38;;;25.59;19.07
14293;BME280;62290;59.420;17.842;2023-02-21T08:54:42;100005.78;;;25.60;18.99
14293;BME280;62290;59.420;17.842;2023-02-21T08:57:12;100021.78;;;25.61;18.86
14293;BME280;62290;59.420;17.842;2023-02-21T08:59:40;100031.72;;;25.61;19.05
14293;BME280;62290;59.420;17.842;2023-02-21T09:02:14;100007.53;;;25.43;18.89
14293;BME280;62290;59.420;17.842;2023-02-21T09:04:42;100045.41;;;25.59;18.72
14293;BME280;62290;59.420;17.842;2023-02-21T09:07:11;100047.91;;;25.61;19.18
14293;BME280;62290;59.420;17.842;2023-02-21T09:09:39;100062.78;;;25.65;18.68
14293;BME280;62290;59.420;17.842;2023-02-21T09:12:08;100076.66;;;25.70;18.82
14293;BME280;62290;59.420;17.842;2023-02-21T09:14:39;100077.13;;;25.73;18.82
14293;BME280;62290;59.420;17.842;2023-02-21T09:17:10;100087.13;;;25.73;18.75
14293;BME280;62290;59.420;17.842;2023-02-21T09:19:39;100088.13;;;25.72;18.67
14293;BME280;62290;59.420;17.842;2023-02-21T09:22:07;100086.75;;;25.68;18.80
14293;BME280;62290;59.420;17.842;2023-02-21T09:24:36;100111.41;;;25.73;19.08
14293;BME280;62290;59.420;17.842;2023-02-21T09:27:05;100103.97;;;25.75;18.82
14293;BME280;62290;59.420;17.842;2023-02-21T09:29:34;100106.50;;;25.76;18.77
14293;BME280;62290;59.420;17.842;2023-02-21T09:32:13;100110.91;;;25.77;18.98
14293;BME280;62290;59.420;17.842;2023-02-21T09:34:41;100127.09;;;25.77;18.85
14293;BME280;62290;59.420;17.842;2023-02-21T09:37:09;100129.81;;;25.77;18.70
14293;BME280;62290;59.420;17.842;2023-02-21T09:39:37;100137.06;;;25.77;18.93
14293;BME280;62290;59.420;17.842;2023-02-21T09:42:06;100142.44;;;25.77;19.01
14293;BME280;62290;59.420;17.842;2023-02-21T09:44:34;100155.94;;;25.77;18.54
14293;BME280;62290;59.420;17.842;2023-02-21T09:47:04;100154.94;;;25.78;18.66
14293;BME280;62290;59.420;17.842;2023-02-21T09:49:36;100157.97;;;25.75;18.51
14293;BME280;62290;59.420;17.842;2023-02-21T09:52:06;100179.56;;;25.75;18.94
14293;BME280;62290;59.420;17.842;2023-02-21T09:54:45;100178.69;;;25.74;19.02
14293;BME280;62290;59.420;17.842;2023-02-21T09:57:17;100179.69;;;25.73;18.58
14293;BME280;62290;59.420;17.842;2023-02-21T09:59:47;100185.09;;;25.73;18.92
14293;BME280;62290;59.420;17.842;2023-02-21T10:02:29;100193.06;;;25.75;18.67
14293;BME280;62290;59.420;17.842;2023-02-21T10:05:15;100202.13;;;25.74;18.95
14293;BME280;62290;59.420;17.842;2023-02-21T10:07:51;100203.16;;;25.73;18.73
14293;BME280;62290;59.420;17.842;2023-02-21T10:10:27;100183.50;;;25.55;19.51
14293;BME280;62290;59.420;17.842;2023-02-21T10:13:04;100226.44;;;25.74;22.15
14293;BME280;62290;59.420;17.842;2023-02-21T10:15:41;100230.53;;;25.78;25.58
14293;BME280;62290;59.420;17.842;2023-02-21T10:18:21;100239.84;;;25.84;28.01
14293;BME280;62290;59.420;17.842;2023-02-21T10:20:55;100247.44;;;25.88;28.11
14293;BME280;62290;59.420;17.842;2023-02-21T10:23:28;100259.28;;;25.95;28.67
14293;BME280;62290;59.420;17.842;2023-02-21T10:26:02;100265.22;;;25.99;29.84
14293;BME280;62290;59.420;17.842;2023-02-21T10:28:33;100275.84;;;26.00;30.80
14293;BME280;62290;59.420;17.842;2023-02-21T10:31:05;100275.72;;;26.02;31.87
14293;BME280;62290;59.420;17.842;2023-02-21T10:33:36;100288.72;;;26.06;32.76
14293;BME280;62290;59.420;17.842;2023-02-21T10:36:16;100297.50;;;26.08;32.39
14293;BME280;62290;59.420;17.842;2023-02-21T10:38:52;100314.25;;;26.12;34.26
14293;BME280;62290;59.420;17.842;2023-02-21T10:41:22;100315.13;;;26.12;33.90
14293;BME280;62290;59.420;17.842;2023-02-21T10:43:56;100325.47;;;26.17;33.37
14293;BME280;62290;59.420;17.842;2023-02-21T10:46:29;100324.78;;;26.15;32.46
14293;BME280;62290;59.420;17.842;2023-02-21T10:49:21;100328.47;;;26.14;31.90
14293;BME280;62290;59.420;17.842;2023-02-21T10:52:05;100344.38;;;26.17;31.03
14293;BME280;62290;59.420;17.842;2023-02-21T10:54:33;100344.88;;;26.20;30.05
14293;BME280;62290;59.420;17.842;2023-02-21T10:57:03;100356.38;;;26.22;29.67
14293;BME280;62290;59.420;17.842;2023-02-21T10:59:33;100367.50;;;26.19;29.04
14293;BME280;62290;59.420;17.842;2023-02-21T11:02:20;100377.63;;;26.17;28.08
14293;BME280;62290;59.420;17.842;2023-02-21T11:04:53;100364.28;;;25.98;28.12
14293;BME280;62290;59.420;17.842;2023-02-21T11:07:23;100385.09;;;26.06;27.46
14293;BME280;62290;59.420;17.842;2023-02-21T11:09:51;100402.53;;;26.11;27.29
14293;BME280;62290;59.420;17.842;2023-02-21T11:12:23;100409.50;;;26.14;26.42
14293;BME280;62290;59.420;17.842;2023-02-21T11:15:14;100416.25;;;26.18;25.87
14293;BME280;62290;59.420;17.842;2023-02-21T11:17:43;100420.84;;;26.17;25.53
14293;BME280;62290;59.420;17.842;2023-02-21T11:20:18;100427.59;;;26.21;25.29
14293;BME280;62290;59.420;17.842;2023-02-21T11:22:50;100430.47;;;26.20;25.26
14293;BME280;62290;59.420;17.842;2023-02-21T11:25:24;100440.94;;;26.23;24.54
14293;BME280;62290;59.420;17.842;2023-02-21T11:28:05;100425.97;;;26.11;24.23
14293;BME280;62290;59.420;17.842;2023-02-21T11:30:35;100445.19;;;26.25;24.04
14293;BME280;62290;59.420;17.842;2023-02-21T11:33:05;100458.56;;;26.27;23.60
14293;BME280;62290;59.420;17.842;2023-02-21T11:35:36;100465.66;;;26.28;23.70
14293;BME280;62290;59.420;17.842;2023-02-21T11:38:32;100466.47;;;26.28;23.47
14293;BME280;62290;59.420;17.842;2023-02-21T11:41:03;100486.09;;;26.30;23.17
14293;BME280;62290;59.420;17.842;2023-02-21T11:43:45;100496.56;;;26.33;22.99
14293;BME280;62290;59.420;17.842;2023-02-21T11:46:18;100503.13;;;26.31;22.14
14293;BME280;62290;59.420;17.842;2023-02-21T11:48:57;100510.25;;;26.32;22.53
14293;BME280;62290;59.420;17.842;2023-02-21T11:51:35;100518.53;;;26.30;21.96
14293;BME280;62290;59.420;17.842;2023-02-21T11:54:06;100519.53;;;26.29;22.16
14293;BME280;62290;59.420;17.842;2023-02-21T11:56:43;100526.47;;;26.32;21.86
14293;BME280;62290;59.420;17.842;2023-02-21T11:59:31;100529.34;;;26.30;21.73
14293;BME280;62290;59.420;17.842;2023-02-21T12:02:21;100528.53;;;26.20;21.49
14293;BME280;62290;59.420;17.842;2023-02-21T12:05:05;100548.16;;;26.22;21.79
14293;BME280;62290;59.420;17.842;2023-02-21T12:07:41;100563.75;;;26.28;21.32
14293;BME280;62290;59.420;17.842;2023-02-21T12:10:37;100568.47;;;26.26;21.12
14293;BME280;62290;59.420;17.842;2023-02-21T12:13:15;100570.31;;;26.26;21.05
14293;BME280;62290;59.420;17.842;2023-02-21T12:15:55;100581.28;;;26.24;21.36
14293;BME280;62290;59.420;17.842;2023-02-21T12:18:35;100589.69;;;26.21;21.53
14293;BME280;62290;59.420;17.842;2023-02-21T12:21:21;100601.63;;;26.19;21.18
14293;BME280;62290;59.420;17.842;2023-02-21T12:23:58;100602.97;;;26.15;21.11
14293;BME280;62290;59.420;17.842;2023-02-21T12:26:45;100599.00;;;26.09;21.50
14293;BME280;62290;59.420;17.842;2023-02-21T12:29:26;100597.75;;;26.04;21.20
14293;BME280;62290;59.420;17.842;2023-02-21T12:32:18;100607.47;;;25.97;21.60
14293;BME280;62290;59.420;17.842;2023-02-21T12:35:03;100621.41;;;25.92;21.81
14293;BME280;62290;59.420;17.842;2023-02-21T12:37:46;100622.03;;;25.86;21.87
14293;BME280;62290;59.420;17.842;2023-02-21T12:40:19;100605.63;;;25.70;22.38
14293;BME280;62290;59.420;17.842;2023-02-21T12:43:02;100630.84;;;25.78;23.10
14293;BME280;62290;59.420;17.842;2023-02-21T12:45:43;100637.41;;;25.76;23.58
14293;BME280;62290;59.420;17.842;2023-02-21T12:48:18;100652.91;;;25.74;23.79
14293;BME280;62290;59.420;17.842;2023-02-21T12:50:50;100627.69;;;25.56;23.20
14293;BME280;62290;59.420;17.842;2023-02-21T12:53:24;100654.91;;;25.72;22.81
14293;BME280;62290;59.420;17.842;2023-02-21T12:55:58;100666.38;;;25.74;22.91
14293;BME280;62290;59.420;17.842;2023-02-21T12:58:33;100672.34;;;25.77;22.22
14293;BME280;62290;59.420;17.842;2023-02-21T13:01:06;100684.84;;;25.78;22.39
14293;BME280;62290;59.420;17.842;2023-02-21T13:03:42;100675.63;;;25.81;22.12
14293;BME280;62290;59.420;17.842;2023-02-21T13:06:18;100690.22;;;25.88;21.41
14293;BME280;62290;59.420;17.842;2023-02-21T13:08:55;100691.75;;;25.91;21.72
14293;BME280;62290;59.420;17.842;2023-02-21T13:11:31;100701.53;;;25.92;20.97
14293;BME280;62290;59.420;17.842;2023-02-21T13:14:08;100700.72;;;25.91;21.06
14293;BME280;62290;59.420;17.842;2023-02-21T13:16:36;100705.38;;;25.89;21.19
14293;BME280;62290;59.420;17.842;2023-02-21T13:19:08;100710.78;;;25.89;21.19
14293;BME280;62290;59.420;17.842;2023-02-21T13:21:55;100717.22;;;25.88;20.60
14293;BME280;62290;59.420;17.842;2023-02-21T13:24:37;100721.34;;;25.83;20.80
14293;BME280;62290;59.420;17.842;2023-02-21T13:27:36;100733.44;;;25.78;21.40
14293;BME280;62290;59.420;17.842;2023-02-21T13:30:14;100749.09;;;25.75;20.82